Time,TemperatureF,DewpointF,PressureIn,WindDirection,WindDirectionDegrees,WindSpeedMPH,WindSpeedGustMPH,Humidity,HourlyPrecipIn,Conditions,Clouds,dailyrainin,SoftwareType,DateUTC
2013-06-14 00:01:00,61.3,49.0,29.75,NW,320,0.0,0.0,64,0.00,,---,0.00,VWS V14.01,2013-06-14 04:01:00,
2013-06-14 00:04:00,61.3,49.0,29.75,NW,320,0.0,0.0,64,0.00,,---,0.00,VWS V14.01,2013-06-14 04:04:00,
2013-06-14 00:05:00,61.3,49.0,29.75,NW,320,0.0,0.0,64,0.00,,---,0.00,VWS V14.01,2013-06-14 04:05:00,
2013-06-14 00:10:00,61.5,49.8,29.75,WNW,293,0.0,0.0,65,0.00,,---,0.00,VWS V14.01,2013-06-14 04:10:00,
2013-06-14 00:15:00,61.5,49.8,29.75,WNW,292,0.0,0.0,65,0.00,,---,0.00,VWS V14.01,2013-06-14 04:15:00,
2013-06-14 00:20:00,61.3,50.2,29.75,NE,51,0.0,0.0,67,0.00,,---,0.00,VWS V14.01,2013-06-14 04:20:00,
2013-06-14 00:25:00,61.3,50.2,29.75,North,9,4.5,4.5,67,0.00,,---,0.00,VWS V14.01,2013-06-14 04:25:00,
2013-06-14 00:30:00,61.5,50.4,29.78,North,7,0.0,0.0,67,0.00,,---,0.00,VWS V14.01,2013-06-14 04:30:00,
2013-06-14 00:36:00,61.7,50.5,29.78,North,353,0.0,0.0,67,0.00,,---,0.00,VWS V14.01,2013-06-14 04:36:00,
2013-06-14 00:41:00,61.7,50.5,29.78,North,0,0.0,0.0,67,0.00,,---,0.00,VWS V14.01,2013-06-14 04:41:00,
2013-06-14 00:46:00,61.9,50.7,29.75,NNW,337,4.5,4.5,67,0.00,,---,0.00,VWS V14.01,2013-06-14 04:46:00,
2013-06-14 00:51:00,61.9,50.7,29.75,NNW,338,0.0,0.0,67,0.00,,---,0.00,VWS V14.01,2013-06-14 04:51:00,
2013-06-14 00:56:00,61.9,50.7,29.75,NNW,338,0.0,0.0,67,0.00,,---,0.00,VWS V14.01,2013-06-14 04:56:00,
2013-06-14 01:01:00,61.9,50.7,29.75,North,353,0.0,3.2,67,0.00,,---,0.00,VWS V14.01,2013-06-14 05:01:00,
2013-06-14 01:06:00,61.7,50.5,29.75,NNW,340,0.0,0.0,67,0.00,,---,0.00,VWS V14.01,2013-06-14 05:06:00,
2013-06-14 01:12:00,61.7,50.5,29.75,North,353,4.5,4.5,67,0.00,,---,0.00,VWS V14.01,2013-06-14 05:12:00,
2013-06-14 01:17:00,61.7,50.5,29.75,NNW,340,3.9,5.8,67,0.00,,---,0.00,VWS V14.01,2013-06-14 05:17:00,
2013-06-14 01:22:00,61.7,50.5,29.75,NNW,343,5.2,5.8,67,0.00,,---,0.00,VWS V14.01,2013-06-14 05:22:00,
2013-06-14 01:27:00,61.9,50.7,29.75,North,353,3.2,3.2,67,0.00,,---,0.00,VWS V14.01,2013-06-14 05:27:00,
2013-06-14 01:32:00,62.1,50.3,29.75,North,6,0.0,0.0,65,0.00,,---,0.00,VWS V14.01,2013-06-14 05:32:00,
2013-06-14 01:37:00,62.1,50.3,29.75,North,0,0.0,0.0,65,0.00,,---,0.00,VWS V14.01,2013-06-14 05:37:00,
2013-06-14 01:42:00,62.1,50.3,29.78,North,0,0.0,0.0,65,0.00,,---,0.00,VWS V14.01,2013-06-14 05:42:00,
2013-06-14 01:47:00,61.9,50.1,29.78,North,357,0.0,0.0,65,0.00,,---,0.00,VWS V14.01,2013-06-14 05:47:00,
2013-06-14 01:52:00,61.9,50.1,29.78,North,0,0.0,0.0,65,0.00,,---,0.00,VWS V14.01,2013-06-14 05:52:00,
2013-06-14 01:57:00,61.5,49.8,29.78,North,0,0.0,0.0,65,0.00,,---,0.00,VWS V14.01,2013-06-14 05:57:00,
2013-06-14 02:03:00,61.3,49.6,29.78,North,0,0.0,4.5,65,0.00,,---,0.00,VWS V14.01,2013-06-14 06:03:00,
2013-06-14 02:08:00,61.0,49.3,29.78,North,0,0.0,0.0,65,0.00,,---,0.00,VWS V14.01,2013-06-14 06:08:00,
2013-06-14 02:13:00,60.8,49.1,29.78,North,0,0.0,0.0,65,0.00,,---,0.00,VWS V14.01,2013-06-14 06:13:00,
2013-06-14 02:18:00,60.6,49.5,29.78,North,3,0.0,0.0,67,0.00,,---,0.00,VWS V14.01,2013-06-14 06:18:00,
2013-06-14 02:23:00,60.6,49.5,29.78,North,0,0.0,0.0,67,0.00,,---,0.00,VWS V14.01,2013-06-14 06:23:00,
2013-06-14 02:28:00,60.6,49.5,29.78,North,0,0.0,0.0,67,0.00,,---,0.00,VWS V14.01,2013-06-14 06:28:00,
2013-06-14 02:34:00,60.6,49.5,29.78,North,0,0.0,0.0,67,0.00,,---,0.00,VWS V14.01,2013-06-14 06:34:00,
2013-06-14 02:39:00,60.6,50.1,29.78,NW,323,4.5,4.5,68,0.00,,---,0.00,VWS V14.01,2013-06-14 06:39:00,
2013-06-14 02:44:00,60.8,50.2,29.78,NNW,334,0.0,0.0,68,0.00,,---,0.00,VWS V14.01,2013-06-14 06:44:00,
2013-06-14 02:49:00,61.0,50.4,29.78,NNW,333,0.0,0.0,68,0.00,,---,0.00,VWS V14.01,2013-06-14 06:49:00,
2013-06-14 02:54:00,61.2,50.0,29.78,North,357,0.0,5.8,67,0.00,,---,0.00,VWS V14.01,2013-06-14 06:54:00,
2013-06-14 02:59:00,61.3,50.2,29.78,NNW,345,5.2,5.2,67,0.00,,---,0.00,VWS V14.01,2013-06-14 06:59:00,
2013-06-14 03:04:00,61.5,50.4,29.78,NNW,339,5.8,7.8,67,0.00,,---,0.00,VWS V14.01,2013-06-14 07:04:00,
2013-06-14 03:09:00,61.5,49.8,29.78,NNW,343,3.9,5.2,65,0.00,,---,0.00,VWS V14.01,2013-06-14 07:09:00,
2013-06-14 03:14:00,61.5,49.8,29.78,North,353,0.0,0.0,65,0.00,,---,0.00,VWS V14.01,2013-06-14 07:14:00,
2013-06-14 03:20:00,61.3,49.6,29.78,NNE,12,5.2,5.2,65,0.00,,---,0.00,VWS V14.01,2013-06-14 07:20:00,
2013-06-14 03:25:00,61.3,49.0,29.78,North,353,11.0,11.0,64,0.00,,---,0.00,VWS V14.01,2013-06-14 07:25:00,
2013-06-14 03:30:00,61.5,48.6,29.78,North,357,5.8,7.8,63,0.00,,---,0.00,VWS V14.01,2013-06-14 07:30:00,
2013-06-14 03:35:00,61.7,48.8,29.78,North,353,3.9,5.2,63,0.00,,---,0.00,VWS V14.01,2013-06-14 07:35:00,
2013-06-14 03:40:00,61.9,49.0,29.78,North,353,5.2,8.4,63,0.00,,---,0.00,VWS V14.01,2013-06-14 07:40:00,
2013-06-14 03:46:00,61.9,49.0,29.78,NNW,344,5.2,7.8,63,0.00,,---,0.00,VWS V14.01,2013-06-14 07:46:00,
2013-06-14 03:51:00,62.1,48.5,29.78,North,0,5.8,7.8,61,0.00,,---,0.00,VWS V14.01,2013-06-14 07:51:00,
2013-06-14 03:56:00,61.9,48.4,29.78,North,353,5.8,5.8,61,0.00,,---,0.00,VWS V14.01,2013-06-14 07:56:00,
2013-06-14 04:01:00,61.9,48.4,29.81,North,0,5.8,5.8,61,0.00,,---,0.00,VWS V14.01,2013-06-14 08:01:00,
2013-06-14 04:06:00,61.9,48.4,29.81,North,353,5.8,5.8,61,0.00,,---,0.00,VWS V14.01,2013-06-14 08:06:00,
2013-06-14 04:11:00,61.7,48.2,29.81,North,349,4.5,5.8,61,0.00,,---,0.00,VWS V14.01,2013-06-14 08:11:00,
2013-06-14 04:17:00,61.5,47.4,29.81,NNW,340,3.9,4.5,60,0.00,,---,0.00,VWS V14.01,2013-06-14 08:17:00,
2013-06-14 04:22:00,61.3,47.2,29.81,North,357,5.2,7.1,60,0.00,,---,0.00,VWS V14.01,2013-06-14 08:22:00,
2013-06-14 04:27:00,61.2,47.1,29.81,NNW,340,4.5,5.2,60,0.00,,---,0.00,VWS V14.01,2013-06-14 08:27:00,
2013-06-14 04:32:00,61.2,47.1,29.81,NNW,340,4.5,7.1,60,0.00,,---,0.00,VWS V14.01,2013-06-14 08:32:00,
2013-06-14 04:37:00,61.0,46.9,29.81,North,0,4.5,7.1,60,0.00,,---,0.00,VWS V14.01,2013-06-14 08:37:00,
2013-06-14 04:42:00,61.0,46.9,29.81,North,353,3.9,5.2,60,0.00,,---,0.00,VWS V14.01,2013-06-14 08:42:00,
2013-06-14 04:47:00,61.0,46.9,29.81,North,357,5.8,5.8,60,0.00,,---,0.00,VWS V14.01,2013-06-14 08:47:00,
2013-06-14 04:52:00,60.8,46.7,29.81,North,0,3.9,3.9,60,0.00,,---,0.00,VWS V14.01,2013-06-14 08:52:00,
2013-06-14 04:57:00,60.8,46.7,29.81,North,353,3.9,3.9,60,0.00,,---,0.00,VWS V14.01,2013-06-14 08:57:00,
2013-06-14 05:02:00,60.6,47.2,29.81,North,353,0.0,0.0,61,0.00,,---,0.00,VWS V14.01,2013-06-14 09:02:00,
2013-06-14 05:08:00,60.4,47.0,29.81,North,353,0.0,0.0,61,0.00,,---,0.00,VWS V14.01,2013-06-14 09:08:00,
2013-06-14 05:13:00,60.3,46.8,29.81,North,353,0.0,0.0,61,0.00,,---,0.00,VWS V14.01,2013-06-14 09:13:00,
2013-06-14 05:18:00,59.9,46.5,29.81,North,353,0.0,0.0,61,0.00,,---,0.00,VWS V14.01,2013-06-14 09:18:00,
2013-06-14 05:23:00,59.7,46.3,29.81,North,353,3.2,3.9,61,0.00,,---,0.00,VWS V14.01,2013-06-14 09:23:00,
2013-06-14 05:28:00,59.4,46.0,29.81,North,353,0.0,3.2,61,0.00,,---,0.00,VWS V14.01,2013-06-14 09:28:00,
2013-06-14 05:34:00,59.0,45.7,29.81,North,353,0.0,0.0,61,0.00,,---,0.00,VWS V14.01,2013-06-14 09:34:00,
2013-06-14 05:39:00,58.8,46.1,29.81,North,0,0.0,0.0,63,0.00,,---,0.00,VWS V14.01,2013-06-14 09:39:00,
2013-06-14 05:44:00,58.5,45.7,29.81,North,357,0.0,0.0,63,0.00,,---,0.00,VWS V14.01,2013-06-14 09:44:00,
2013-06-14 05:49:00,58.1,46.0,29.81,NNW,331,0.0,3.9,64,0.00,,---,0.00,VWS V14.01,2013-06-14 09:49:00,
2013-06-14 05:54:00,57.9,45.8,29.81,NNW,340,3.2,5.2,64,0.00,,---,0.00,VWS V14.01,2013-06-14 09:54:00,
2013-06-14 05:59:00,57.9,46.4,29.81,North,4,5.8,5.8,65,0.00,,---,0.00,VWS V14.01,2013-06-14 09:59:00,
2013-06-14 06:05:00,58.1,46.5,29.81,North,353,5.2,7.1,65,0.00,,---,0.00,VWS V14.01,2013-06-14 10:05:00,
2013-06-14 06:10:00,58.1,46.5,29.81,NNW,329,4.5,4.5,65,0.00,,---,0.00,VWS V14.01,2013-06-14 10:10:00,
2013-06-14 06:15:00,58.3,46.7,29.84,North,357,3.9,3.9,65,0.00,,---,0.00,VWS V14.01,2013-06-14 10:15:00,
2013-06-14 06:20:00,58.3,46.7,29.84,North,353,4.5,5.8,65,0.00,,---,0.00,VWS V14.01,2013-06-14 10:20:00,
2013-06-14 06:25:00,58.3,46.7,29.84,North,349,0.0,3.9,65,0.00,,---,0.00,VWS V14.01,2013-06-14 10:25:00,
2013-06-14 06:30:00,58.3,46.7,29.84,North,357,3.2,4.5,65,0.00,,---,0.00,VWS V14.01,2013-06-14 10:30:00,
2013-06-14 06:36:00,58.5,46.9,29.84,NNW,343,9.1,9.1,65,0.00,,---,0.00,VWS V14.01,2013-06-14 10:36:00,
2013-06-14 06:41:00,58.5,46.9,29.84,North,349,3.9,3.9,65,0.00,,---,0.00,VWS V14.01,2013-06-14 10:41:00,
2013-06-14 06:46:00,58.6,47.1,29.84,NNW,341,3.9,3.9,65,0.00,,---,0.00,VWS V14.01,2013-06-14 10:46:00,
2013-06-14 06:51:00,58.6,47.1,29.84,North,0,0.0,0.0,65,0.00,,---,0.00,VWS V14.01,2013-06-14 10:51:00,
2013-06-14 06:56:00,58.8,47.2,29.84,NNE,16,0.0,0.0,65,0.00,,---,0.00,VWS V14.01,2013-06-14 10:56:00,
2013-06-14 07:01:00,58.6,47.1,29.84,NE,34,0.0,0.0,65,0.00,,---,0.00,VWS V14.01,2013-06-14 11:01:00,
2013-06-14 07:06:00,58.5,47.5,29.84,ENE,57,0.0,5.2,67,0.00,,---,0.00,VWS V14.01,2013-06-14 11:06:00,
2013-06-14 07:12:00,58.5,47.5,29.84,NNE,14,0.0,4.5,67,0.00,,---,0.00,VWS V14.01,2013-06-14 11:12:00,
2013-06-14 07:17:00,58.5,47.5,29.84,North,353,0.0,4.5,67,0.00,,---,0.00,VWS V14.01,2013-06-14 11:17:00,
2013-06-14 07:22:00,58.8,47.8,29.84,NNW,334,5.8,5.8,67,0.00,,---,0.00,VWS V14.01,2013-06-14 11:22:00,
2013-06-14 07:27:00,59.2,48.1,29.84,NNW,328,3.2,3.9,67,0.00,,---,0.00,VWS V14.01,2013-06-14 11:27:00,
2013-06-14 07:32:00,59.5,48.5,29.84,North,353,7.8,9.1,67,0.00,,---,0.00,VWS V14.01,2013-06-14 11:32:00,
2013-06-14 07:37:00,59.9,48.8,29.84,NNE,32,11.0,11.0,67,0.00,,---,0.00,VWS V14.01,2013-06-14 11:37:00,
2013-06-14 07:42:00,60.3,49.2,29.84,North,357,5.8,7.1,67,0.00,,---,0.00,VWS V14.01,2013-06-14 11:42:00,
2013-06-14 07:47:00,60.6,49.5,29.84,NNW,336,7.8,7.8,67,0.00,,---,0.00,VWS V14.01,2013-06-14 11:47:00,
2013-06-14 07:52:00,60.8,48.5,29.84,North,3,8.4,14.6,64,0.00,,---,0.00,VWS V14.01,2013-06-14 11:52:00,
2013-06-14 07:58:00,61.2,48.9,29.87,North,7,7.1,8.4,64,0.00,,---,0.00,VWS V14.01,2013-06-14 11:58:00,
2013-06-14 08:03:00,61.5,49.2,29.87,North,0,3.9,9.1,64,0.00,,---,0.00,VWS V14.01,2013-06-14 12:03:00,
2013-06-14 08:08:00,61.7,48.8,29.87,North,353,8.4,8.4,63,0.00,,---,0.00,VWS V14.01,2013-06-14 12:08:00,
2013-06-14 08:13:00,61.9,48.4,29.87,NW,314,4.5,9.1,61,0.00,,---,0.00,VWS V14.01,2013-06-14 12:13:00,
2013-06-14 08:18:00,62.2,48.7,29.87,North,10,9.1,9.1,61,0.00,,---,0.00,VWS V14.01,2013-06-14 12:18:00,
2013-06-14 08:23:00,62.6,48.4,29.87,North,5,7.8,7.8,60,0.00,,---,0.00,VWS V14.01,2013-06-14 12:23:00,
2013-06-14 08:28:00,63.0,48.8,29.87,NNW,333,4.5,7.8,60,0.00,,---,0.00,VWS V14.01,2013-06-14 12:28:00,
2013-06-14 08:33:00,63.3,47.8,29.87,NE,38,12.0,17.8,57,0.00,,---,0.00,VWS V14.01,2013-06-14 12:33:00,
2013-06-14 08:39:00,63.5,47.3,29.87,North,353,12.6,12.6,56,0.00,,---,0.00,VWS V14.01,2013-06-14 12:39:00,
2013-06-14 08:44:00,63.5,47.3,29.87,North,4,12.0,12.0,56,0.00,,---,0.00,VWS V14.01,2013-06-14 12:44:00,
2013-06-14 08:49:00,63.5,46.7,29.87,NW,326,14.6,17.8,54,0.00,,---,0.00,VWS V14.01,2013-06-14 12:49:00,
2013-06-14 08:54:00,63.7,46.8,29.87,WNW,289,12.0,19.1,54,0.00,,---,0.00,VWS V14.01,2013-06-14 12:54:00,
2013-06-14 08:59:00,63.9,47.0,29.90,NNE,15,8.4,16.5,54,0.00,,---,0.00,VWS V14.01,2013-06-14 12:59:00,
2013-06-14 09:04:00,64.2,46.7,29.90,North,7,5.8,12.6,53,0.00,,---,0.00,VWS V14.01,2013-06-14 13:04:00,
2013-06-14 09:09:00,64.4,46.8,29.90,NNW,344,16.5,16.5,53,0.00,,---,0.00,VWS V14.01,2013-06-14 13:09:00,
2013-06-14 09:15:00,64.8,47.2,29.90,North,8,9.1,12.6,53,0.00,,---,0.00,VWS V14.01,2013-06-14 13:15:00,
2013-06-14 09:20:00,64.9,46.6,29.90,North,357,11.0,22.4,51,0.00,,---,0.00,VWS V14.01,2013-06-14 13:20:00,
2013-06-14 09:25:00,65.3,47.0,29.90,North,357,8.4,15.2,51,0.00,,---,0.00,VWS V14.01,2013-06-14 13:25:00,
2013-06-14 09:30:00,66.0,47.6,29.90,NNW,340,7.8,11.0,51,0.00,,---,0.00,VWS V14.01,2013-06-14 13:30:00,
2013-06-14 09:35:00,66.7,48.3,29.90,North,357,5.8,12.0,51,0.00,,---,0.00,VWS V14.01,2013-06-14 13:35:00,
2013-06-14 09:40:00,67.1,47.9,29.90,North,357,16.5,16.5,50,0.00,,---,0.00,VWS V14.01,2013-06-14 13:40:00,
2013-06-14 09:45:00,67.1,47.1,29.90,NNE,16,18.5,19.8,49,0.00,,---,0.00,VWS V14.01,2013-06-14 13:45:00,
2013-06-14 09:50:00,67.6,47.6,29.90,NNE,25,8.4,8.4,49,0.00,,---,0.00,VWS V14.01,2013-06-14 13:50:00,
2013-06-14 09:55:00,68.4,48.3,29.90,North,349,12.0,12.6,49,0.00,,---,0.00,VWS V14.01,2013-06-14 13:55:00,
2013-06-14 10:00:00,68.7,47.8,29.93,NNW,348,11.0,11.0,47,0.00,,---,0.00,VWS V14.01,2013-06-14 14:00:00,
2013-06-14 10:05:00,68.9,48.0,29.93,North,353,9.1,11.0,47,0.00,,---,0.00,VWS V14.01,2013-06-14 14:05:00,
2013-06-14 10:10:00,69.3,48.3,29.93,North,1,17.2,17.2,47,0.00,,---,0.00,VWS V14.01,2013-06-14 14:10:00,
2013-06-14 10:15:00,68.7,47.8,29.90,North,0,11.7,12.6,47,0.00,,---,0.00,VWS V14.01,2013-06-14 14:15:00,
2013-06-14 10:20:00,68.4,46.7,29.90,North,357,9.1,11.7,46,0.00,,---,0.00,VWS V14.01,2013-06-14 14:20:00,
2013-06-14 10:25:00,68.0,46.4,29.90,NNE,18,9.1,17.8,46,0.00,,---,0.00,VWS V14.01,2013-06-14 14:25:00,
2013-06-14 10:31:00,67.6,46.9,29.93,NW,323,12.6,12.6,47,0.00,,---,0.00,VWS V14.01,2013-06-14 14:31:00,
2013-06-14 10:36:00,67.3,46.5,29.93,North,0,7.8,7.8,47,0.00,,---,0.00,VWS V14.01,2013-06-14 14:36:00,
2013-06-14 10:41:00,67.3,46.5,29.93,North,353,8.4,8.4,47,0.00,,---,0.00,VWS V14.01,2013-06-14 14:41:00,
2013-06-14 10:46:00,67.3,46.5,29.93,NNW,338,3.9,9.1,47,0.00,,---,0.00,VWS V14.01,2013-06-14 14:46:00,
2013-06-14 10:51:00,67.1,46.4,29.93,North,357,11.0,11.0,47,0.00,,---,0.00,VWS V14.01,2013-06-14 14:51:00,
2013-06-14 10:56:00,67.3,46.5,29.93,NE,50,7.8,8.4,47,0.00,,---,0.00,VWS V14.01,2013-06-14 14:56:00,
2013-06-14 11:02:00,68.2,47.3,29.93,NE,36,6.5,11.0,47,0.00,,---,0.00,VWS V14.01,2013-06-14 15:02:00,
2013-06-14 11:07:00,68.5,47.7,29.93,North,357,7.8,12.6,47,0.00,,---,0.00,VWS V14.01,2013-06-14 15:07:00,
2013-06-14 11:12:00,68.4,47.5,29.93,NE,34,7.8,8.4,47,0.00,,---,0.00,VWS V14.01,2013-06-14 15:12:00,
2013-06-14 11:17:00,68.2,46.6,29.96,North,1,8.4,8.4,46,0.00,,---,0.00,VWS V14.01,2013-06-14 15:17:00,
2013-06-14 11:22:00,68.2,46.6,29.96,North,353,20.4,20.4,46,0.00,,---,0.00,VWS V14.01,2013-06-14 15:22:00,
2013-06-14 11:27:00,67.8,46.2,29.96,North,353,7.8,14.6,46,0.00,,---,0.00,VWS V14.01,2013-06-14 15:27:00,
2013-06-14 11:32:00,67.6,46.1,29.96,North,6,5.8,5.8,46,0.00,,---,0.00,VWS V14.01,2013-06-14 15:32:00,
2013-06-14 11:37:00,68.2,46.6,29.96,NE,34,7.1,15.2,46,0.00,,---,0.00,VWS V14.01,2013-06-14 15:37:00,
2013-06-14 11:42:00,68.9,47.2,29.96,NNW,332,7.8,12.0,46,0.00,,---,0.00,VWS V14.01,2013-06-14 15:42:00,
2013-06-14 11:47:00,69.3,47.5,29.96,North,353,12.0,14.6,46,0.00,,---,0.00,VWS V14.01,2013-06-14 15:47:00,
2013-06-14 11:52:00,69.8,47.2,29.96,North,10,11.0,12.6,44,0.00,,---,0.00,VWS V14.01,2013-06-14 15:52:00,
2013-06-14 11:58:00,69.4,47.7,29.96,NW,326,7.8,7.8,46,0.00,,---,0.00,VWS V14.01,2013-06-14 15:58:00,
2013-06-14 12:03:00,69.6,47.9,29.96,NW,312,7.8,15.9,46,0.00,,---,0.00,VWS V14.01,2013-06-14 16:03:00,
2013-06-14 12:08:00,69.6,47.9,29.96,NNW,346,9.1,12.0,46,0.00,,---,0.00,VWS V14.01,2013-06-14 16:08:00,
2013-06-14 12:13:00,69.8,47.2,29.96,NNW,327,8.4,15.2,44,0.00,,---,0.00,VWS V14.01,2013-06-14 16:13:00,
2013-06-14 12:18:00,70.3,47.7,29.96,NW,318,9.1,9.1,44,0.00,,---,0.00,VWS V14.01,2013-06-14 16:18:00,
2013-06-14 12:23:00,70.3,47.7,29.96,North,3,9.1,9.1,44,0.00,,---,0.00,VWS V14.01,2013-06-14 16:23:00,
2013-06-14 12:28:00,70.0,47.4,29.96,North,11,7.1,7.1,44,0.00,,---,0.00,VWS V14.01,2013-06-14 16:28:00,
2013-06-14 12:33:00,70.0,47.4,29.96,NE,49,5.8,9.1,44,0.00,,---,0.00,VWS V14.01,2013-06-14 16:33:00,
2013-06-14 12:38:00,70.2,47.5,29.96,NW,324,3.9,7.1,44,0.00,,---,0.00,VWS V14.01,2013-06-14 16:38:00,
2013-06-14 12:43:00,70.3,47.7,29.96,ENE,59,4.5,7.8,44,0.00,,---,0.00,VWS V14.01,2013-06-14 16:43:00,
2013-06-14 12:48:00,70.9,48.2,29.96,North,11,0.0,11.0,44,0.00,,---,0.00,VWS V14.01,2013-06-14 16:48:00,
2013-06-14 12:54:00,71.4,48.7,29.96,NNE,26,5.8,5.8,44,0.00,,---,0.00,VWS V14.01,2013-06-14 16:54:00,
2013-06-14 12:59:00,71.6,48.0,29.96,North,357,12.0,12.0,43,0.00,,---,0.00,VWS V14.01,2013-06-14 16:59:00,
2013-06-14 13:04:00,71.6,48.0,29.96,North,3,12.0,14.6,43,0.00,,---,0.00,VWS V14.01,2013-06-14 17:04:00,
2013-06-14 13:09:00,71.6,48.0,29.96,NNE,21,9.1,14.6,43,0.00,,---,0.00,VWS V14.01,2013-06-14 17:09:00,
2013-06-14 13:14:00,71.8,46.4,29.96,North,349,5.8,10.4,40,0.00,,---,0.00,VWS V14.01,2013-06-14 17:14:00,
2013-06-14 13:19:00,71.4,47.0,29.96,North,353,11.0,11.0,42,0.00,,---,0.00,VWS V14.01,2013-06-14 17:19:00,
2013-06-14 13:24:00,71.2,46.8,29.96,NNE,24,3.9,7.8,42,0.00,,---,0.00,VWS V14.01,2013-06-14 17:24:00,
2013-06-14 13:29:00,70.9,47.3,29.96,North,353,5.8,12.6,43,0.00,,---,0.00,VWS V14.01,2013-06-14 17:29:00,
2013-06-14 13:34:00,70.3,46.0,29.96,North,10,4.5,7.8,42,0.00,,---,0.00,VWS V14.01,2013-06-14 17:34:00,
2013-06-14 13:39:00,70.0,45.7,29.96,NNE,23,4.5,7.8,42,0.00,,---,0.00,VWS V14.01,2013-06-14 17:39:00,
2013-06-14 13:44:00,70.0,46.5,29.96,NNE,16,4.5,9.1,43,0.00,,---,0.00,VWS V14.01,2013-06-14 17:44:00,
2013-06-14 13:49:00,69.8,46.4,29.96,NNW,344,0.0,5.8,43,0.00,,---,0.00,VWS V14.01,2013-06-14 17:49:00,
2013-06-14 13:54:00,70.2,47.5,29.96,NNW,344,11.0,11.7,44,0.00,,---,0.00,VWS V14.01,2013-06-14 17:54:00,
2013-06-14 13:59:00,71.1,48.4,29.96,NNW,332,8.4,12.0,44,0.00,,---,0.00,VWS V14.01,2013-06-14 17:59:00,
2013-06-14 14:05:00,72.1,48.5,29.96,NNE,20,5.2,5.2,43,0.00,,---,0.00,VWS V14.01,2013-06-14 18:05:00,
2013-06-14 14:10:00,72.5,47.9,29.96,NNE,13,4.5,4.5,42,0.00,,---,0.00,VWS V14.01,2013-06-14 18:10:00,
2013-06-14 14:15:00,72.7,47.2,29.96,West,272,4.5,5.8,40,0.00,,---,0.00,VWS V14.01,2013-06-14 18:15:00,
2013-06-14 14:20:00,72.9,47.4,29.96,North,357,5.2,8.4,40,0.00,,---,0.00,VWS V14.01,2013-06-14 18:20:00,
2013-06-14 14:25:00,73.4,48.8,29.96,North,353,7.8,7.8,42,0.00,,---,0.00,VWS V14.01,2013-06-14 18:25:00,
2013-06-14 14:30:00,73.6,47.1,29.96,NNW,344,11.0,11.0,39,0.00,,---,0.00,VWS V14.01,2013-06-14 18:30:00,
2013-06-14 14:36:00,73.6,47.1,29.96,North,7,9.1,11.7,39,0.00,,---,0.00,VWS V14.01,2013-06-14 18:36:00,
2013-06-14 14:41:00,72.9,46.4,29.96,NW,319,5.2,5.8,39,0.00,,---,0.00,VWS V14.01,2013-06-14 18:41:00,
2013-06-14 14:46:00,73.0,47.5,29.96,NW,325,3.9,4.5,40,0.00,,---,0.00,VWS V14.01,2013-06-14 18:46:00,
2013-06-14 14:51:00,73.6,46.1,29.96,NW,325,11.0,11.0,38,0.00,,---,0.00,VWS V14.01,2013-06-14 18:51:00,
2013-06-14 14:56:00,74.3,47.7,29.96,NE,36,8.4,11.0,39,0.00,,---,0.00,VWS V14.01,2013-06-14 18:56:00,
2013-06-14 15:01:00,74.5,46.9,29.96,NNW,331,7.1,9.1,38,0.00,,---,0.00,VWS V14.01,2013-06-14 19:01:00,
2013-06-14 15:06:00,75.0,48.3,29.96,North,0,3.9,12.0,39,0.00,,---,0.00,VWS V14.01,2013-06-14 19:06:00,
2013-06-14 15:12:00,75.6,47.9,29.96,North,357,12.6,15.9,38,0.00,,---,0.00,VWS V14.01,2013-06-14 19:12:00,
2013-06-14 15:17:00,75.9,47.2,29.96,North,353,5.2,8.4,36,0.00,,---,0.00,VWS V14.01,2013-06-14 19:17:00,
2013-06-14 15:22:00,76.1,47.3,29.96,NNW,334,3.2,3.2,36,0.00,,---,0.00,VWS V14.01,2013-06-14 19:22:00,
2013-06-14 15:27:00,76.5,46.6,29.96,WNW,301,7.8,8.4,35,0.00,,---,0.00,VWS V14.01,2013-06-14 19:27:00,
2013-06-14 15:32:00,76.3,46.5,29.96,North,357,3.2,3.9,35,0.00,,---,0.00,VWS V14.01,2013-06-14 19:32:00,
2013-06-14 15:37:00,75.7,46.0,29.96,NE,44,11.0,11.7,35,0.00,,---,0.00,VWS V14.01,2013-06-14 19:37:00,
2013-06-14 15:42:00,75.6,45.8,29.96,NNW,348,5.8,8.4,35,0.00,,---,0.00,VWS V14.01,2013-06-14 19:42:00,
2013-06-14 15:47:00,75.9,46.1,29.96,North,10,11.7,12.0,35,0.00,,---,0.00,VWS V14.01,2013-06-14 19:47:00,
2013-06-14 15:52:00,76.1,46.3,29.96,NNW,339,7.8,11.7,35,0.00,,---,0.00,VWS V14.01,2013-06-14 19:52:00,
2013-06-14 15:57:00,75.7,44.9,29.96,NNW,345,5.8,7.8,33,0.00,,---,0.00,VWS V14.01,2013-06-14 19:57:00,
2013-06-14 16:02:00,75.6,44.8,29.96,NNW,334,8.4,10.4,33,0.00,,---,0.00,VWS V14.01,2013-06-14 20:02:00,
2013-06-14 16:08:00,75.9,45.1,29.96,West,259,5.2,15.9,33,0.00,,---,0.00,VWS V14.01,2013-06-14 20:08:00,
2013-06-14 16:13:00,76.1,45.2,29.96,SW,230,4.5,11.0,33,0.00,,---,0.00,VWS V14.01,2013-06-14 20:13:00,
2013-06-14 16:18:00,77.0,46.0,29.96,North,0,8.4,9.7,33,0.00,,---,0.00,VWS V14.01,2013-06-14 20:18:00,
2013-06-14 16:23:00,77.2,45.0,29.96,WNW,300,7.8,7.8,32,0.00,,---,0.00,VWS V14.01,2013-06-14 20:23:00,
2013-06-14 16:28:00,77.4,45.2,29.96,North,5,4.5,9.1,32,0.00,,---,0.00,VWS V14.01,2013-06-14 20:28:00,
2013-06-14 16:33:00,76.6,44.6,29.96,North,7,4.5,7.8,32,0.00,,---,0.00,VWS V14.01,2013-06-14 20:33:00,
2013-06-14 16:38:00,75.9,44.0,29.96,North,350,7.8,7.8,32,0.00,,---,0.00,VWS V14.01,2013-06-14 20:38:00,
2013-06-14 16:43:00,75.2,43.3,29.96,NNE,20,6.5,9.1,32,0.00,,---,0.00,VWS V14.01,2013-06-14 20:43:00,
2013-06-14 16:49:00,74.7,44.0,29.96,NNW,332,3.2,8.4,33,0.00,,---,0.00,VWS V14.01,2013-06-14 20:49:00,
2013-06-14 16:54:00,73.9,43.3,29.96,North,1,5.2,8.4,33,0.00,,---,0.00,VWS V14.01,2013-06-14 20:54:00,
2013-06-14 16:59:00,73.8,43.2,29.96,North,0,5.2,5.8,33,0.00,,---,0.00,VWS V14.01,2013-06-14 20:59:00,
2013-06-14 17:04:00,73.6,43.0,29.96,North,357,0.0,4.5,33,0.00,,---,0.00,VWS V14.01,2013-06-14 21:04:00,
2013-06-14 17:09:00,73.2,43.8,29.96,NNE,12,3.9,5.2,35,0.00,,---,0.00,VWS V14.01,2013-06-14 21:09:00,
2013-06-14 17:14:00,73.0,43.6,29.96,North,353,3.2,4.5,35,0.00,,---,0.00,VWS V14.01,2013-06-14 21:14:00,
2013-06-14 17:19:00,72.7,43.3,29.96,North,353,0.0,0.0,35,0.00,,---,0.00,VWS V14.01,2013-06-14 21:19:00,
2013-06-14 17:24:00,72.7,44.3,29.96,North,353,3.9,3.9,36,0.00,,---,0.00,VWS V14.01,2013-06-14 21:24:00,
2013-06-14 17:30:00,72.7,44.3,29.96,NNW,344,0.0,3.9,36,0.00,,---,0.00,VWS V14.01,2013-06-14 21:30:00,
2013-06-14 17:35:00,72.7,44.3,29.96,NNW,343,0.0,4.5,36,0.00,,---,0.00,VWS V14.01,2013-06-14 21:35:00,
2013-06-14 17:40:00,72.7,44.3,29.96,NNW,334,3.9,4.5,36,0.00,,---,0.00,VWS V14.01,2013-06-14 21:40:00,
2013-06-14 17:45:00,72.7,45.3,29.96,North,357,7.8,9.1,38,0.00,,---,0.00,VWS V14.01,2013-06-14 21:45:00,
2013-06-14 17:50:00,73.4,46.9,29.96,NNW,339,5.2,7.1,39,0.00,,---,0.00,VWS V14.01,2013-06-14 21:50:00,
2013-06-14 17:55:00,73.9,46.4,29.96,North,4,5.2,7.8,38,0.00,,---,0.00,VWS V14.01,2013-06-14 21:55:00,
2013-06-14 18:00:00,73.9,45.4,29.96,NNE,32,8.4,8.4,36,0.00,,---,0.00,VWS V14.01,2013-06-14 22:00:00,
2013-06-14 18:05:00,74.3,45.8,29.96,WNW,287,11.0,11.0,36,0.00,,---,0.00,VWS V14.01,2013-06-14 22:05:00,
2013-06-14 18:10:00,74.5,44.9,29.96,North,353,5.2,5.2,35,0.00,,---,0.00,VWS V14.01,2013-06-14 22:10:00,
2013-06-14 18:15:00,74.5,44.9,29.96,North,357,4.5,5.8,35,0.00,,---,0.00,VWS V14.01,2013-06-14 22:15:00,
2013-06-14 18:21:00,74.1,44.6,29.96,North,3,9.1,12.0,35,0.00,,---,0.00,VWS V14.01,2013-06-14 22:21:00,
2013-06-14 18:26:00,73.8,44.2,29.96,North,353,9.1,9.1,35,0.00,,---,0.00,VWS V14.01,2013-06-14 22:26:00,
2013-06-14 18:31:00,73.4,43.9,29.96,North,353,7.8,7.8,35,0.00,,---,0.00,VWS V14.01,2013-06-14 22:31:00,
2013-06-14 18:36:00,73.4,43.9,29.96,NNE,13,5.2,7.8,35,0.00,,---,0.00,VWS V14.01,2013-06-14 22:36:00,
2013-06-14 18:41:00,73.4,43.9,29.96,North,353,9.1,9.1,35,0.00,,---,0.00,VWS V14.01,2013-06-14 22:41:00,
2013-06-14 18:46:00,73.4,43.9,29.96,North,353,7.8,8.4,35,0.00,,---,0.00,VWS V14.01,2013-06-14 22:46:00,
2013-06-14 18:51:00,73.2,43.8,29.96,North,0,4.5,5.8,35,0.00,,---,0.00,VWS V14.01,2013-06-14 22:51:00,
2013-06-14 18:56:00,73.0,44.6,29.96,North,0,4.5,5.2,36,0.00,,---,0.00,VWS V14.01,2013-06-14 22:56:00,
2013-06-14 19:01:00,72.7,44.3,29.96,NNE,13,5.8,5.8,36,0.00,,---,0.00,VWS V14.01,2013-06-14 23:01:00,
2013-06-14 19:06:00,72.5,44.2,29.96,North,357,0.0,3.9,36,0.00,,---,0.00,VWS V14.01,2013-06-14 23:06:00,
2013-06-14 19:11:00,72.5,44.2,29.96,North,2,3.9,7.1,36,0.00,,---,0.00,VWS V14.01,2013-06-14 23:11:00,
2013-06-14 19:17:00,72.7,45.3,29.96,NNW,336,4.5,5.8,38,0.00,,---,0.00,VWS V14.01,2013-06-14 23:17:00,
2013-06-14 19:22:00,72.9,45.5,29.96,North,353,5.8,7.8,38,0.00,,---,0.00,VWS V14.01,2013-06-14 23:22:00,
2013-06-14 19:27:00,72.9,45.5,29.99,NNW,344,5.2,5.8,38,0.00,,---,0.00,VWS V14.01,2013-06-14 23:27:00,
2013-06-14 19:32:00,72.7,45.3,29.99,NNW,331,5.8,5.8,38,0.00,,---,0.00,VWS V14.01,2013-06-14 23:32:00,
2013-06-14 19:37:00,72.3,45.0,29.99,North,353,7.1,7.1,38,0.00,,---,0.00,VWS V14.01,2013-06-14 23:37:00,
2013-06-14 19:42:00,72.0,44.7,29.99,North,357,5.8,8.4,38,0.00,,---,0.00,VWS V14.01,2013-06-14 23:42:00,
2013-06-14 19:48:00,71.8,44.5,29.99,NW,319,7.8,7.8,38,0.00,,---,0.00,VWS V14.01,2013-06-14 23:48:00,
2013-06-14 19:53:00,71.4,45.1,29.99,North,353,0.0,0.0,39,0.00,,---,0.00,VWS V14.01,2013-06-14 23:53:00,
2013-06-14 19:58:00,71.2,45.0,29.99,North,11,5.2,5.2,39,0.00,,---,0.00,VWS V14.01,2013-06-14 23:58:00,
2013-06-14 20:03:00,70.9,44.7,29.99,NNW,340,4.5,5.2,39,0.00,,---,0.00,VWS V14.01,2013-06-15 00:03:00,
2013-06-14 20:08:00,70.7,44.5,29.99,North,357,3.9,5.2,39,0.00,,---,0.00,VWS V14.01,2013-06-15 00:08:00,
2013-06-14 20:13:00,70.3,44.2,29.99,NNW,341,5.8,5.8,39,0.00,,---,0.00,VWS V14.01,2013-06-15 00:13:00,
2013-06-14 20:18:00,70.2,44.0,29.99,NNW,343,3.9,5.2,39,0.00,,---,0.00,VWS V14.01,2013-06-15 00:18:00,
2013-06-14 20:24:00,70.0,43.9,29.99,North,357,0.0,0.0,39,0.00,,---,0.00,VWS V14.01,2013-06-15 00:24:00,
2013-06-14 20:29:00,69.6,44.5,29.99,North,353,4.5,4.5,40,0.00,,---,0.00,VWS V14.01,2013-06-15 00:29:00,
2013-06-14 20:34:00,69.3,44.1,29.99,North,353,0.0,0.0,40,0.00,,---,0.00,VWS V14.01,2013-06-15 00:34:00,
2013-06-14 20:39:00,68.9,44.7,29.99,North,353,0.0,0.0,42,0.00,,---,0.00,VWS V14.01,2013-06-15 00:39:00,
2013-06-14 20:44:00,68.5,45.2,29.99,North,353,0.0,0.0,43,0.00,,---,0.00,VWS V14.01,2013-06-15 00:44:00,
2013-06-14 20:50:00,68.0,45.6,29.99,North,353,0.0,0.0,44,0.00,,---,0.00,VWS V14.01,2013-06-15 00:50:00,
2013-06-14 20:55:00,67.5,45.9,29.99,SE,136,3.9,3.9,46,0.00,,---,0.00,VWS V14.01,2013-06-15 00:55:00,
2013-06-14 21:00:00,66.9,45.4,29.99,SSE,153,0.0,0.0,46,0.00,,---,0.00,VWS V14.01,2013-06-15 01:00:00,
2013-06-14 21:05:00,66.2,44.8,29.99,SE,138,5.8,5.8,46,0.00,,---,0.00,VWS V14.01,2013-06-15 01:05:00,
2013-06-14 21:10:00,65.7,45.0,29.99,SE,142,3.9,3.9,47,0.00,,---,0.00,VWS V14.01,2013-06-15 01:10:00,
2013-06-14 21:15:00,65.1,44.6,29.99,SSE,151,5.2,5.8,47,0.00,,---,0.00,VWS V14.01,2013-06-15 01:15:00,
2013-06-14 21:20:00,64.6,44.8,29.99,SE,141,5.8,7.1,49,0.00,,---,0.00,VWS V14.01,2013-06-15 01:20:00,
2013-06-14 21:25:00,64.2,44.5,29.99,SE,129,3.9,3.9,49,0.00,,---,0.00,VWS V14.01,2013-06-15 01:25:00,
2013-06-14 21:30:00,63.9,44.9,30.02,NNW,334,3.9,3.9,50,0.00,,---,0.00,VWS V14.01,2013-06-15 01:30:00,
2013-06-14 21:36:00,63.7,46.2,30.02,NNW,344,0.0,0.0,53,0.00,,---,0.00,VWS V14.01,2013-06-15 01:36:00,
2013-06-14 21:41:00,63.5,46.7,30.02,ENE,70,0.0,0.0,54,0.00,,---,0.00,VWS V14.01,2013-06-15 01:41:00,
2013-06-14 21:46:00,63.3,46.5,30.02,West,260,0.0,0.0,54,0.00,,---,0.00,VWS V14.01,2013-06-15 01:46:00,
2013-06-14 21:51:00,63.1,46.3,30.02,ESE,116,0.0,0.0,54,0.00,,---,0.00,VWS V14.01,2013-06-15 01:51:00,
2013-06-14 21:56:00,63.0,46.2,30.02,ESE,118,0.0,0.0,54,0.00,,---,0.00,VWS V14.01,2013-06-15 01:56:00,
2013-06-14 22:01:00,62.8,46.0,30.02,ESE,120,3.9,3.9,54,0.00,,---,0.00,VWS V14.01,2013-06-15 02:01:00,
2013-06-14 22:07:00,62.4,46.3,30.02,SE,146,5.2,5.8,56,0.00,,---,0.00,VWS V14.01,2013-06-15 02:07:00,
2013-06-14 22:12:00,62.1,46.0,30.02,SSE,149,5.8,5.8,56,0.00,,---,0.00,VWS V14.01,2013-06-15 02:12:00,
2013-06-14 22:17:00,61.9,46.5,30.02,SE,136,5.8,5.8,57,0.00,,---,0.00,VWS V14.01,2013-06-15 02:17:00,
2013-06-14 22:22:00,61.5,46.8,30.02,SE,144,5.8,5.8,58,0.00,,---,0.00,VWS V14.01,2013-06-15 02:22:00,
2013-06-14 22:27:00,61.3,46.6,30.02,SE,141,7.8,7.8,58,0.00,,---,0.00,VWS V14.01,2013-06-15 02:27:00,
2013-06-14 22:32:00,61.2,47.1,30.02,SE,145,5.8,5.8,60,0.00,,---,0.00,VWS V14.01,2013-06-15 02:32:00,
2013-06-14 22:38:00,61.0,46.9,30.02,SE,145,5.8,5.8,60,0.00,,---,0.00,VWS V14.01,2013-06-15 02:38:00,
2013-06-14 22:43:00,60.8,46.7,30.05,SSE,151,5.8,5.8,60,0.00,,---,0.00,VWS V14.01,2013-06-15 02:43:00,
2013-06-14 22:48:00,60.6,47.2,30.05,SSE,148,0.0,4.5,61,0.00,,---,0.00,VWS V14.01,2013-06-15 02:48:00,
2013-06-14 22:53:00,60.4,47.0,30.05,SSE,148,0.0,0.0,61,0.00,,---,0.00,VWS V14.01,2013-06-15 02:53:00,
2013-06-14 22:58:00,60.3,47.4,30.05,North,9,5.2,5.2,63,0.00,,---,0.00,VWS V14.01,2013-06-15 02:58:00,
2013-06-14 23:03:00,60.1,47.3,30.05,ESE,108,0.0,4.5,63,0.00,,---,0.00,VWS V14.01,2013-06-15 03:03:00,
2013-06-14 23:08:00,60.1,47.3,30.05,South,191,0.0,0.0,63,0.00,,---,0.00,VWS V14.01,2013-06-15 03:08:00,
2013-06-14 23:13:00,59.9,47.7,30.05,South,191,0.0,0.0,64,0.00,,---,0.00,VWS V14.01,2013-06-15 03:13:00,
2013-06-14 23:18:00,59.7,47.5,30.05,South,184,0.0,0.0,64,0.00,,---,0.00,VWS V14.01,2013-06-15 03:18:00,
2013-06-14 23:23:00,59.5,47.3,30.05,South,183,0.0,0.0,64,0.00,,---,0.00,VWS V14.01,2013-06-15 03:23:00,
2013-06-14 23:28:00,59.4,47.2,30.05,SSE,163,0.0,3.9,64,0.00,,---,0.00,VWS V14.01,2013-06-15 03:28:00,
2013-06-14 23:33:00,59.2,47.0,30.05,SE,141,7.1,7.1,64,0.00,,---,0.00,VWS V14.01,2013-06-15 03:33:00,
2013-06-14 23:38:00,58.8,47.2,30.05,SE,141,5.2,5.2,65,0.00,,---,0.00,VWS V14.01,2013-06-15 03:38:00,
2013-06-14 23:44:00,58.8,47.2,30.05,SE,144,3.2,3.2,65,0.00,,---,0.00,VWS V14.01,2013-06-15 03:44:00,
2013-06-14 23:49:00,58.6,47.1,30.05,SE,142,4.5,5.2,65,0.00,,---,0.00,VWS V14.01,2013-06-15 03:49:00,
2013-06-14 23:54:00,58.5,47.5,30.05,SE,142,3.9,4.5,67,0.00,,---,0.00,VWS V14.01,2013-06-15 03:54:00,
2013-06-14 23:59:00,58.5,47.5,30.05,SSE,166,0.0,3.2,67,0.00,,---,0.00,VWS V14.01,2013-06-15 03:59:00,